Time;durP1;ratioP1;P1;durP2;ratioP2;P2;SDS_P1;SDS_P2;PMS_P1;PMS_P2;Temp;Humidity;BMP_temperature;BMP_pressure;BME280_temperature;BME280_humidity;BME280_pressure;Samples;Min_cycle;Max_cycle;Signal;HPM_P1;HPM_P2
2022/08/31 00:04:19;;;;;;;7.55;3.17;;;;;;;24.30;44.98;98142.59;4424124;32;20451;-82
2022/08/31 00:06:49;;;;;;;6.65;2.60;;;;;;;23.98;46.06;98152.81;4425663;32;20081;-82
2022/08/31 00:09:19;;;;;;;7.68;3.08;;;;;;;24.70;43.73;98150.09;4426199;32;20466;-82
2022/08/31 00:11:47;;;;;;;8.75;2.90;;;;;;;24.52;43.67;98152.75;4426308;32;20115;-82
2022/08/31 00:14:14;;;;;;;8.45;2.97;;;;;;;24.62;43.64;98157.13;4425816;32;20111;-82
2022/08/31 00:16:44;;;;;;;8.75;3.12;;;;;;;24.25;44.65;98152.78;4426083;32;20074;-82
2022/08/31 00:19:12;;;;;;;9.88;3.17;;;;;;;24.43;44.43;98148.37;4426249;32;20089;-82
2022/08/31 00:21:39;;;;;;;7.78;3.30;;;;;;;24.33;44.93;98147.59;4425904;32;20086;-83
2022/08/31 00:24:06;;;;;;;7.62;3.22;;;;;;;24.30;45.18;98145.25;4425898;32;20506;-82
2022/08/31 00:26:34;;;;;;;8.38;3.08;;;;;;;24.60;44.21;98144.09;4425873;32;20177;-83
2022/08/31 00:29:01;;;;;;;6.85;3.08;;;;;;;25.13;42.47;98145.03;4426145;32;20739;-82
2022/08/31 00:31:28;;;;;;;7.35;3.00;;;;;;;24.91;42.46;98143.69;4426132;32;20102;-82
2022/08/31 00:33:55;;;;;;;7.45;2.67;;;;;;;24.95;42.50;98150.28;4425671;32;20112;-82
2022/08/31 00:36:24;;;;;;;8.93;3.30;;;;;;;24.88;42.70;98154.50;4426112;32;20165;-82
2022/08/31 00:38:53;;;;;;;8.50;3.60;;;;;;;24.00;44.78;98143.75;4426054;32;20153;-82
2022/08/31 00:41:24;;;;;;;8.23;3.20;;;;;;;24.22;44.67;98140.72;4425737;32;20112;-83
2022/08/31 00:43:57;;;;;;;6.85;3.20;;;;;;;23.98;45.32;98140.44;4425895;32;20801;-82
2022/08/31 00:46:28;;;;;;;10.85;3.30;;;;;;;24.09;45.24;98136.78;4426028;32;20116;-82
2022/08/31 00:49:06;;;;;;;8.68;3.35;;;;;;;24.33;44.38;98137.06;4425730;32;20154;-83
2022/08/31 00:51:38;;;;;;;7.53;3.60;;;;;;;24.15;44.92;98136.19;4426010;32;20089;-82
2022/08/31 00:54:09;;;;;;;7.93;3.20;;;;;;;24.15;45.00;98141.47;4425974;32;20141;-82
2022/08/31 00:56:36;;;;;;;8.48;3.37;;;;;;;24.45;44.51;98135.84;4424405;32;20116;-83
2022/08/31 00:59:03;;;;;;;8.07;3.47;;;;;;;25.05;42.89;98138.69;4424801;32;20155;-82
2022/08/31 01:01:30;;;;;;;8.77;3.37;;;;;;;25.04;42.91;98137.03;4425906;32;20405;-82
2022/08/31 01:03:58;;;;;;;6.80;2.85;;;;;;;24.72;43.59;98137.59;4425310;32;20094;-82
2022/08/31 01:06:25;;;;;;;7.72;3.17;;;;;;;24.56;44.19;98133.97;4425918;32;20111;-82
2022/08/31 01:08:55;;;;;;;8.82;3.35;;;;;;;24.77;43.78;98139.75;4436906;32;20168;-82
2022/08/31 01:11:22;;;;;;;10.13;3.20;;;;;;;25.01;43.08;98145.28;4425845;32;20402;-82
2022/08/31 01:13:49;;;;;;;8.35;3.40;;;;;;;25.01;42.96;98133.84;4425727;32;20151;-81
2022/08/31 01:16:20;;;;;;;13.27;3.60;;;;;;;24.23;44.86;98137.09;4425283;32;20086;-82
2022/08/31 01:18:48;;;;;;;8.38;2.95;;;;;;;24.56;43.98;98131.31;4424317;32;20110;-81
2022/08/31 01:21:26;;;;;;;7.45;3.20;;;;;;;23.67;46.25;98146.00;4425860;32;20112;-82
2022/08/31 01:23:56;;;;;;;7.55;3.37;;;;;;;23.73;46.56;98147.25;4411565;32;20108;-81
2022/08/31 01:26:26;;;;;;;8.80;3.58;;;;;;;23.71;46.51;98143.06;4425835;32;20089;-82
2022/08/31 01:28:57;;;;;;;8.05;3.50;;;;;;;24.03;45.95;98140.00;4425628;32;20089;-81
2022/08/31 01:31:27;;;;;;;9.57;3.75;;;;;;;23.68;46.64;98141.56;4424298;32;20125;-82
2022/08/31 01:33:55;;;;;;;9.50;3.47;;;;;;;23.56;46.87;98140.91;4425738;32;20090;-81
2022/08/31 01:36:24;;;;;;;11.60;3.70;;;;;;;22.77;49.05;98140.38;4425732;32;20225;-81
2022/08/31 01:38:51;;;;;;;8.10;3.70;;;;;;;23.09;48.67;98143.53;4436894;32;20176;-82
2022/08/31 01:41:19;;;;;;;10.90;3.80;;;;;;;23.18;48.49;98133.97;4425709;32;20204;-81
2022/08/31 01:43:46;;;;;;;7.87;3.67;;;;;;;23.51;47.57;98131.78;4425174;32;20149;-82
2022/08/31 01:46:13;;;;;;;8.95;3.75;;;;;;;23.20;48.21;98136.47;4425723;32;20142;-81
2022/08/31 01:48:43;;;;;;;7.90;3.62;;;;;;;22.64;50.03;98131.91;4425508;32;20377;-81
2022/08/31 01:51:11;;;;;;;9.75;3.87;;;;;;;23.29;48.27;98125.06;4424205;32;20137;-82
2022/08/31 01:53:39;;;;;;;9.55;3.65;;;;;;;23.70;47.21;98134.34;4424305;32;20137;-81
2022/08/31 01:56:13;;;;;;;9.27;3.90;;;;;;;23.53;47.36;98128.03;4425500;32;20086;-81
2022/08/31 01:58:40;;;;;;;10.98;4.00;;;;;;;23.50;47.61;98123.06;4425063;32;20085;-82
2022/08/31 02:01:10;;;;;;;10.02;3.80;;;;;;;23.85;46.72;98117.09;4424530;32;20123;-82
2022/08/31 02:03:57;;;;;;;9.18;3.80;;;;;;;23.98;46.22;98123.81;4425282;32;20159;-82
2022/08/31 02:06:25;;;;;;;10.93;4.10;;;;;;;23.00;48.62;98125.97;4425260;32;20133;-82
2022/08/31 02:08:52;;;;;;;9.15;3.65;;;;;;;23.31;48.35;98118.69;4425207;32;20457;-82
2022/08/31 02:11:19;;;;;;;8.82;3.87;;;;;;;24.06;46.45;98123.91;4425428;32;20161;-82
2022/08/31 02:13:46;;;;;;;9.50;3.78;;;;;;;23.50;47.18;98123.06;4425008;32;20454;-82
2022/08/31 02:16:13;;;;;;;8.80;3.60;;;;;;;22.77;49.25;98129.84;4425364;32;20133;-82
2022/08/31 02:18:40;;;;;;;8.00;3.72;;;;;;;23.75;47.06;98126.03;4425323;32;20094;-82
2022/08/31 02:21:07;;;;;;;10.98;3.90;;;;;;;24.12;45.50;98121.50;4425129;32;20157;-82
2022/08/31 02:23:34;;;;;;;8.60;3.67;;;;;;;23.80;46.16;98118.50;4425128;32;20157;-82
2022/08/31 02:26:01;;;;;;;10.88;3.95;;;;;;;23.18;47.60;98123.44;4425093;32;20165;-83
2022/08/31 02:28:28;;;;;;;8.25;3.75;;;;;;;23.09;47.86;98119.03;4425240;32;20147;-82
2022/08/31 02:30:55;;;;;;;8.40;3.78;;;;;;;22.91;48.50;98124.19;4425278;32;20248;-82
2022/08/31 02:33:23;;;;;;;8.88;4.03;;;;;;;23.99;45.96;98112.28;4425029;32;20098;-82
2022/08/31 02:35:51;;;;;;;9.20;3.67;;;;;;;23.65;46.70;98120.78;4425265;32;20121;-81
2022/08/31 02:38:21;;;;;;;9.65;3.95;;;;;;;23.43;46.93;98121.13;4425128;32;20400;-81
2022/08/31 02:40:50;;;;;;;9.38;3.75;;;;;;;23.17;47.33;98116.50;4424969;32;20112;-82
2022/08/31 02:43:18;;;;;;;10.60;3.87;;;;;;;22.88;48.25;98121.00;4425168;32;20440;-82
2022/08/31 02:45:51;;;;;;;8.77;3.95;;;;;;;22.57;49.15;98118.50;4425251;32;20113;-82
2022/08/31 02:48:19;;;;;;;10.13;4.07;;;;;;;22.66;48.86;98120.31;4424680;32;20476;-82
2022/08/31 02:50:49;;;;;;;8.27;3.83;;;;;;;22.21;49.84;98115.56;4425217;32;20145;-82
2022/08/31 02:53:18;;;;;;;9.65;3.78;;;;;;;22.60;49.00;98115.59;4425156;32;20089;-81
2022/08/31 02:55:46;;;;;;;9.02;4.10;;;;;;;22.77;48.63;98114.91;4424656;32;20148;-81
2022/08/31 02:58:14;;;;;;;10.90;4.30;;;;;;;22.17;50.75;98101.06;4423950;32;20491;-82
2022/08/31 03:00:45;;;;;;;8.95;4.03;;;;;;;22.09;51.51;98102.72;4425095;32;20115;-82
2022/08/31 03:03:13;;;;;;;9.82;4.15;;;;;;;22.31;50.55;98099.00;4424810;32;20078;-82
2022/08/31 03:05:40;;;;;;;10.35;4.50;;;;;;;22.86;48.85;98101.88;4424834;32;20128;-81
2022/08/31 03:08:07;;;;;;;10.35;4.30;;;;;;;22.95;48.51;98099.25;4424428;32;20500;-83
2022/08/31 03:10:34;;;;;;;9.73;4.53;;;;;;;22.25;50.45;98110.06;4425010;32;20098;-82
2022/08/31 03:13:01;;;;;;;9.75;4.30;;;;;;;22.79;49.18;98112.13;4424974;32;20086;-82
2022/08/31 03:15:28;;;;;;;9.63;4.15;;;;;;;23.24;47.99;98104.44;4424410;32;20086;-83
2022/08/31 03:17:56;;;;;;;9.38;4.30;;;;;;;22.53;49.94;98117.94;4436477;32;20106;-82
2022/08/31 03:20:25;;;;;;;9.10;4.22;;;;;;;22.16;51.34;98116.97;4424920;32;20150;-82
2022/08/31 03:22:53;;;;;;;10.35;4.00;;;;;;;22.39;50.92;98114.91;4424542;32;20114;-82
2022/08/31 03:25:21;;;;;;;11.60;4.60;;;;;;;22.78;49.63;98110.47;4436046;32;20143;-82
2022/08/31 03:27:48;;;;;;;8.70;4.20;;;;;;;23.68;47.25;98109.97;4424789;32;20492;-82
2022/08/31 03:30:18;;;;;;;10.13;4.07;;;;;;;23.81;46.35;98110.44;4424421;32;20111;-82
2022/08/31 03:32:47;;;;;;;11.63;4.60;;;;;;;23.61;46.83;98114.19;4424865;32;20164;-82
2022/08/31 03:35:14;;;;;;;10.27;4.47;;;;;;;22.48;49.37;98114.91;4424472;32;20078;-82
2022/08/31 03:37:41;;;;;;;9.35;4.35;;;;;;;22.68;49.64;98117.53;4424268;32;20485;-82
2022/08/31 03:40:10;;;;;;;9.88;4.45;;;;;;;22.80;49.27;98119.88;4426208;32;20089;-82
2022/08/31 03:42:37;;;;;;;12.05;4.72;;;;;;;23.61;47.45;98120.28;4429742;32;20081;-82
2022/08/31 03:45:06;;;;;;;9.88;4.30;;;;;;;23.14;48.42;98127.31;4429201;32;20078;-82
2022/08/31 03:47:34;;;;;;;13.07;4.90;;;;;;;22.51;49.27;98116.44;4428487;32;20150;-82
2022/08/31 03:50:09;;;;;;;10.77;4.55;;;;;;;21.91;50.36;98119.13;4429398;32;20133;-83
2022/08/31 03:52:37;;;;;;;9.77;4.55;;;;;;;21.94;50.03;98112.75;4429657;32;20497;-82
2022/08/31 03:55:05;;;;;;;10.07;4.50;;;;;;;22.77;48.01;98122.78;4440977;32;20169;-82
2022/08/31 03:57:33;;;;;;;11.00;4.50;;;;;;;23.26;46.56;98118.28;4429199;32;20149;-82
2022/08/31 04:00:00;;;;;;;10.98;4.35;;;;;;;23.31;46.38;98110.78;4429409;32;20089;-82
2022/08/31 04:02:27;;;;;;;11.48;4.22;;;;;;;23.02;47.20;98117.94;4429418;32;20081;-82
2022/08/31 04:04:59;;;;;;;11.32;5.03;;;;;;;23.00;47.49;98114.62;4428809;32;20098;-82
2022/08/31 04:07:26;;;;;;;10.65;4.22;;;;;;;22.93;47.47;98131.94;4429281;32;20101;-82
2022/08/31 04:09:54;;;;;;;10.95;4.25;;;;;;;22.53;48.85;98122.38;4429169;32;20121;-82
2022/08/31 04:12:21;;;;;;;10.10;4.32;;;;;;;22.35;49.67;98127.50;4429004;32;20086;-82
2022/08/31 04:14:48;;;;;;;11.80;4.68;;;;;;;23.30;47.38;98116.19;4429020;32;20090;-82
2022/08/31 04:17:15;;;;;;;11.02;4.75;;;;;;;22.83;48.59;98131.91;4429158;32;20354;-82
2022/08/31 04:19:42;;;;;;;11.85;4.82;;;;;;;22.38;49.95;98131.66;4428767;32;20368;-82
2022/08/31 04:22:09;;;;;;;12.25;4.75;;;;;;;23.29;47.36;98128.53;4429121;32;20099;-82
2022/08/31 04:24:36;;;;;;;14.30;4.80;;;;;;;22.97;47.69;98133.31;4428884;32;20099;-82
2022/08/31 04:27:03;;;;;;;15.30;4.82;;;;;;;23.33;46.76;98129.91;4428734;32;20098;-82
2022/08/31 04:29:31;;;;;;;13.40;4.95;;;;;;;23.21;47.10;98141.56;4429103;32;20440;-82
2022/08/31 04:31:58;;;;;;;12.50;4.65;;;;;;;23.31;46.79;98142.38;4429013;32;20145;-82
2022/08/31 04:34:25;;;;;;;16.75;4.70;;;;;;;23.26;46.93;98143.75;4428551;32;20128;-82
2022/08/31 04:36:52;;;;;;;14.75;4.55;;;;;;;22.78;47.63;98148.13;4428884;32;20135;-81
2022/08/31 04:39:19;;;;;;;8.40;3.85;;;;;;;22.69;47.71;98148.97;4428598;32;20155;-83
2022/08/31 04:41:49;;;;;;;11.52;4.03;;;;;;;22.65;47.67;98152.84;4429138;32;20085;-82
2022/08/31 04:44:16;;;;;;;11.00;4.15;;;;;;;22.42;49.17;98156.69;4428806;32;20107;-82
2022/08/31 04:46:46;;;;;;;14.65;3.97;;;;;;;22.70;48.48;98145.34;4428771;32;20145;-82
2022/08/31 04:49:14;;;;;;;10.05;4.47;;;;;;;21.87;50.67;98143.97;4429310;32;20116;-81
2022/08/31 04:51:43;;;;;;;10.60;4.28;;;;;;;22.67;49.21;98150.06;4427831;32;20058;-81
2022/08/31 04:54:12;;;;;;;14.93;5.37;;;;;;;23.05;48.67;98146.59;4426758;32;20130;-81
2022/08/31 04:56:42;;;;;;;10.93;4.95;;;;;;;22.81;49.82;98147.84;4430505;32;20106;-83
2022/08/31 04:59:12;;;;;;;13.20;4.85;;;;;;;23.82;46.90;98149.00;4438499;32;20105;-82
2022/08/31 05:01:44;;;;;;;12.10;4.47;;;;;;;23.91;46.77;98153.38;4437434;32;20076;-84
2022/08/31 05:04:13;;;;;;;13.30;5.60;;;;;;;23.48;48.10;98150.50;4437668;32;20111;-82
2022/08/31 05:06:42;;;;;;;12.80;5.40;;;;;;;23.23;49.61;98144.88;4437855;32;20114;-82
2022/08/31 05:09:13;;;;;;;16.90;7.70;;;;;;;23.35;49.73;98151.63;4436954;32;20452;-83
2022/08/31 05:11:40;;;;;;;18.15;4.70;;;;;;;24.02;48.35;98151.50;4437116;32;20114;-82
2022/08/31 05:14:07;;;;;;;9.75;3.92;;;;;;;25.05;44.94;98159.81;4434380;32;20082;-81
2022/08/31 05:16:37;;;;;;;10.65;4.05;;;;;;;24.70;45.81;98150.09;4425854;32;20121;-82
2022/08/31 05:19:04;;;;;;;11.35;4.97;;;;;;;24.75;45.15;98162.81;4427514;32;20103;-82
2022/08/31 05:21:36;;;;;;;11.12;4.82;;;;;;;25.59;43.42;98165.75;4427530;32;20090;-83
2022/08/31 05:24:08;;;;;;;10.23;4.00;;;;;;;26.03;42.31;98172.75;4426801;32;20149;-82
2022/08/31 05:26:39;;;;;;;10.48;4.40;;;;;;;26.22;41.98;98170.66;4426939;32;20077;-82
2022/08/31 05:29:08;;;;;;;10.30;4.03;;;;;;;26.52;41.72;98187.78;4438871;32;20500;-83
2022/08/31 05:31:36;;;;;;;8.60;3.62;;;;;;;26.69;41.40;98177.22;4428220;32;20094;-82
2022/08/31 05:34:04;;;;;;;9.70;4.62;;;;;;;27.06;41.14;98174.13;4428742;32;20145;-81
2022/08/31 05:36:31;;;;;;;8.95;3.90;;;;;;;27.65;40.44;98180.84;4429573;32;20106;-82
2022/08/31 05:38:59;;;;;;;10.38;3.85;;;;;;;28.72;38.46;98181.97;4429523;32;20189;-82
2022/08/31 05:41:28;;;;;;;9.02;3.33;;;;;;;29.34;36.82;98178.31;4429019;32;20102;-82
2022/08/31 05:43:56;;;;;;;13.07;3.90;;;;;;;30.30;34.58;98180.06;4428593;32;20107;-82
2022/08/31 05:46:23;;;;;;;13.25;3.83;;;;;;;30.48;34.79;98174.31;4429007;32;20786;-82
2022/08/31 05:48:50;;;;;;;8.18;3.60;;;;;;;31.20;33.01;98174.22;4428925;32;20155;-82
2022/08/31 05:51:18;;;;;;;8.27;3.33;;;;;;;31.92;31.60;98165.06;4429017;32;20088;-83
2022/08/31 05:53:45;;;;;;;6.70;3.10;;;;;;;32.62;30.60;98165.69;4427478;32;20077;-83
2022/08/31 05:56:15;;;;;;;8.55;3.62;;;;;;;31.88;31.49;98169.13;4425449;32;20141;-84
2022/08/31 05:58:46;;;;;;;10.38;3.95;;;;;;;32.45;30.93;98159.91;4425472;32;20157;-83
2022/08/31 06:01:18;;;;;;;9.48;3.45;;;;;;;31.55;32.89;98169.72;4425540;32;20578;-83
2022/08/31 06:03:45;;;;;;;11.07;3.53;;;;;;;32.53;31.85;98168.53;4424867;32;20106;-82
2022/08/31 06:06:13;;;;;;;9.80;3.53;;;;;;;33.62;29.62;98178.06;4425487;32;20429;-82
2022/08/31 06:08:40;;;;;;;8.02;3.28;;;;;;;33.29;29.63;98167.41;4423922;32;20172;-82
2022/08/31 06:11:18;;;;;;;8.20;3.47;;;;;;;32.28;31.99;98174.63;4424436;32;20609;-81
2022/08/31 06:13:47;;;;;;;11.43;3.60;;;;;;;31.04;33.82;98175.28;4426363;32;20110;-81
2022/08/31 06:16:16;;;;;;;7.97;3.33;;;;;;;31.15;34.49;98173.94;4426755;32;20160;-81
2022/08/31 06:18:50;;;;;;;10.73;3.70;;;;;;;29.15;37.48;98169.03;4427807;32;20120;-80
2022/08/31 06:21:23;;;;;;;10.18;3.92;;;;;;;28.08;40.14;98165.44;4427729;32;20090;-79
2022/08/31 06:23:52;;;;;;;8.55;3.80;;;;;;;26.86;42.42;98170.13;4428190;32;20104;-79
2022/08/31 06:26:21;;;;;;;11.98;4.05;;;;;;;26.36;43.28;98166.56;4428516;32;20133;-80
2022/08/31 06:28:50;;;;;;;10.05;3.75;;;;;;;27.60;41.08;98163.75;4425839;32;20161;-79
2022/08/31 06:31:20;;;;;;;12.65;4.30;;;;;;;26.85;41.65;98166.66;4429258;32;20081;-79
2022/08/31 06:33:48;;;;;;;8.40;3.80;;;;;;;26.35;44.62;98164.91;4430818;32;20078;-80
2022/08/31 06:36:18;;;;;;;9.68;4.12;;;;;;;25.98;44.44;98162.66;4438126;32;20121;-79
2022/08/31 06:38:45;;;;;;;8.40;3.70;;;;;;;25.65;45.76;98153.75;4424962;32;20131;-79
2022/08/31 06:41:16;;;;;;;8.15;3.42;;;;;;;26.64;43.34;98161.00;4424166;32;20541;-78
2022/08/31 06:43:44;;;;;;;12.80;3.75;;;;;;;26.92;42.68;98161.53;4425515;32;20107;-78
2022/08/31 06:46:12;;;;;;;9.77;3.45;;;;;;;26.48;43.29;98167.13;4425248;32;20447;-79
2022/08/31 06:48:40;;;;;;;8.88;3.62;;;;;;;25.56;45.52;98158.16;4425739;32;20163;-79
2022/08/31 06:51:08;;;;;;;11.93;4.12;;;;;;;26.04;45.26;98159.34;4424426;32;20458;-78
2022/08/31 06:53:36;;;;;;;10.82;4.10;;;;;;;25.77;44.54;98155.16;4425048;32;20078;-79
2022/08/31 06:56:05;;;;;;;8.98;3.83;;;;;;;24.89;46.58;98157.03;4425153;32;20588;-79
2022/08/31 06:58:46;;;;;;;8.32;3.40;;;;;;;24.08;49.51;98158.84;4425232;32;20093;-78
2022/08/31 07:01:27;;;;;;;8.20;3.35;;;;;;;25.03;47.27;98156.50;4435918;32;20155;-78
2022/08/31 07:04:04;;;;;;;7.75;3.08;;;;;;;25.79;45.12;98160.25;4425009;32;20108;-78
2022/08/31 07:06:34;;;;;;;9.20;3.70;;;;;;;27.09;42.65;98171.13;4424722;32;20136;-78
2022/08/31 07:09:05;;;;;;;7.22;3.37;;;;;;;27.58;40.42;98171.87;4424661;32;20147;-77
2022/08/31 07:11:41;;;;;;;8.77;3.60;;;;;;;26.27;43.95;98162.25;4424985;32;20090;-78
2022/08/31 07:14:12;;;;;;;11.93;3.22;;;;;;;25.93;44.52;98165.75;4424194;32;20433;-78
2022/08/31 07:16:40;;;;;;;7.93;2.92;;;;;;;27.35;41.50;98163.81;4424270;32;20154;-78
2022/08/31 07:19:07;;;;;;;7.70;3.35;;;;;;;27.10;41.47;98157.72;4424971;32;20117;-78
2022/08/31 07:21:38;;;;;;;9.23;3.83;;;;;;;26.63;42.52;98156.72;4424397;32;20403;-79
2022/08/31 07:24:06;;;;;;;7.53;3.42;;;;;;;26.78;43.27;98165.66;4424681;32;20090;-78
2022/08/31 07:26:47;;;;;;;9.52;3.60;;;;;;;26.58;43.07;98164.31;4424500;32;20108;-78
2022/08/31 07:29:17;;;;;;;10.05;3.42;;;;;;;25.45;45.08;98154.94;4424514;32;20607;-78
2022/08/31 07:31:47;;;;;;;8.63;3.10;;;;;;;25.12;46.25;98159.19;4424591;32;20157;-80
2022/08/31 07:34:17;;;;;;;10.18;3.40;;;;;;;25.15;45.63;98145.69;4423906;32;20150;-80
2022/08/31 07:42:23;;;;;;;7.97;3.20;;;;;;;25.80;43.99;98156.63;4424219;32;20407;-79
2022/08/31 07:44:51;;;;;;;6.85;2.70;;;;;;;27.74;40.71;98159.59;4424265;32;20156;-80
2022/08/31 07:47:20;;;;;;;9.00;3.25;;;;;;;27.06;40.49;98156.41;4424276;32;20149;-79
2022/08/31 07:49:51;;;;;;;8.55;3.00;;;;;;;26.88;40.16;98161.00;4435550;32;20132;-79
2022/08/31 07:52:22;;;;;;;9.05;3.40;;;;;;;26.86;40.83;98163.00;4424399;32;20185;-79
2022/08/31 07:54:51;;;;;;;7.82;3.17;;;;;;;27.84;39.37;98161.03;4424491;32;20117;-80
2022/08/31 07:57:20;;;;;;;7.05;3.17;;;;;;;28.72;36.95;98155.44;4423870;32;20153;-80
2022/08/31 07:59:53;;;;;;;6.72;3.10;;;;;;;29.74;35.71;98155.81;4424414;32;20105;-80
2022/08/31 08:02:22;;;;;;;8.98;2.92;;;;;;;29.11;36.72;98157.09;4424277;32;20089;-80
2022/08/31 08:04:52;;;;;;;9.70;3.28;;;;;;;28.83;36.87;98153.38;4423794;32;20082;-80
2022/08/31 08:07:19;;;;;;;8.55;3.20;;;;;;;29.03;36.95;98158.03;4424106;32;20481;-80
2022/08/31 08:09:47;;;;;;;7.30;3.10;;;;;;;29.89;35.48;98158.47;4423370;32;20102;-79
2022/08/31 08:12:14;;;;;;;7.80;3.53;;;;;;;27.53;38.87;98160.12;4424212;32;20168;-79
2022/08/31 08:14:41;;;;;;;6.57;3.00;;;;;;;27.81;38.72;98158.75;4423808;32;20598;-79
2022/08/31 08:17:08;;;;;;;9.63;3.55;;;;;;;26.67;41.25;98160.69;4423675;32;20142;-80
2022/08/31 08:19:35;;;;;;;8.23;3.35;;;;;;;27.07;40.76;98159.88;4423929;32;20142;-80
2022/08/31 08:22:02;;;;;;;7.05;3.17;;;;;;;27.35;40.47;98158.53;4424038;32;20090;-80
2022/08/31 08:24:31;;;;;;;8.38;3.55;;;;;;;28.04;39.05;98166.75;4423358;32;20125;-80
2022/08/31 08:26:58;;;;;;;8.65;3.35;;;;;;;27.96;38.47;98158.84;4424874;32;20098;-79
2022/08/31 08:29:28;;;;;;;10.32;3.85;;;;;;;28.10;38.86;98155.47;4426037;32;20101;-79
2022/08/31 08:31:59;;;;;;;20.20;4.95;;;;;;;29.62;37.02;98163.44;4425783;32;20150;-80
2022/08/31 08:34:26;;;;;;;11.30;3.35;;;;;;;30.51;35.00;98165.94;4425920;32;20108;-79
2022/08/31 08:36:58;;;;;;;7.07;3.05;;;;;;;30.55;34.44;98156.59;4425863;32;20109;-80
2022/08/31 08:39:26;;;;;;;8.52;3.50;;;;;;;30.37;35.78;98153.53;4425673;32;20093;-79
2022/08/31 08:41:58;;;;;;;11.23;2.92;;;;;;;29.49;36.05;98155.28;4425899;32;20486;-80
2022/08/31 08:44:27;;;;;;;8.52;3.62;;;;;;;30.51;34.59;98157.97;4425821;32;20089;-79
2022/08/31 08:46:56;;;;;;;10.48;3.35;;;;;;;28.64;38.67;98154.66;4424217;32;20112;-80
2022/08/31 08:49:33;;;;;;;10.55;3.25;;;;;;;29.87;35.66;98150.66;4425818;32;20121;-80
2022/08/31 08:52:04;;;;;;;;;;;;;;;29.94;35.50;98150.75;4425892;32;20471;-80
2022/08/31 08:54:36;;;;;;;7.05;3.22;;;;;;;29.90;35.35;98152.12;4436950;32;19999;-80
2022/08/31 08:57:13;;;;;;;10.55;3.42;;;;;;;30.36;34.93;98154.53;4425708;32;20142;-80
2022/08/31 08:59:45;;;;;;;7.07;3.28;;;;;;;28.72;37.03;98146.66;4425383;32;20141;-80
2022/08/31 09:02:56;;;;;;;7.95;3.20;;;;;;;29.23;36.89;98147.69;4424680;32;20157;-80
2022/08/31 09:05:38;;;;;;;9.77;3.70;;;;;;;29.94;36.36;98143.59;4421032;32;20104;-80
2022/08/31 09:08:44;;;;;;;7.85;3.35;;;;;;;28.43;38.52;98134.06;4425294;32;20119;-81
2022/08/31 09:11:21;;;;;;;7.00;3.33;;;;;;;27.76;39.34;98134.59;4425866;32;20098;-81
2022/08/31 09:13:58;;;;;;;9.85;3.67;;;;;;;27.63;40.30;98134.25;4436912;32;20107;-82
2022/08/31 09:16:37;;;;;;;13.18;3.85;;;;;;;28.23;38.30;98137.16;4425610;32;20157;-82
2022/08/31 09:19:12;;;;;;;9.32;3.67;;;;;;;30.26;34.93;98136.22;4425790;32;20149;-81
2022/08/31 09:21:51;;;;;;;9.80;3.37;;;;;;;30.19;34.94;98135.31;4425249;32;20089;-80
2022/08/31 09:24:25;;;;;;;9.10;3.40;;;;;;;29.76;35.36;98132.50;4425692;32;20108;-81
2022/08/31 09:27:35;;;;;;;9.70;3.50;;;;;;;29.47;36.51;98129.84;4425103;32;20169;-81
2022/08/31 09:30:05;;;;;;;11.25;3.60;;;;;;;29.16;36.53;98122.88;4425600;32;20520;-80
2022/08/31 09:32:34;;;;;;;12.73;3.30;;;;;;;30.89;34.09;98123.09;4425521;32;20144;-80
2022/08/31 09:35:08;;;;;;;9.10;3.37;;;;;;;31.54;32.49;98116.59;4425140;32;20137;-81
2022/08/31 09:37:49;;;;;;;9.90;3.28;;;;;;;31.07;33.25;98120.78;4423698;32;20073;-81
2022/08/31 09:40:22;;;;;;;6.75;3.35;;;;;;;29.63;35.28;98119.06;4425792;32;20094;-80
2022/08/31 09:43:03;;;;;;;8.05;3.33;;;;;;;29.74;34.82;98113.25;4425322;32;20137;-81
2022/08/31 09:45:35;;;;;;;8.88;3.45;;;;;;;29.96;35.19;98117.63;4424115;32;20089;-81
2022/08/31 09:48:08;;;;;;;6.78;2.80;;;;;;;30.37;34.16;98113.59;4425177;32;20440;-81
2022/08/31 09:50:43;;;;;;;8.27;3.20;;;;;;;28.43;37.05;98113.66;4425573;32;20120;-81
2022/08/31 09:56:14;;;;;;;9.00;2.80;;;;;;;30.62;33.33;98104.19;4425103;32;20134;-81
2022/08/31 09:58:56;;;;;;;6.40;3.17;;;;;;;32.17;30.89;98111.97;4425339;32;20086;-80
2022/08/31 10:01:30;;;;;;;8.45;3.22;;;;;;;31.50;31.68;98112.69;4425349;32;20126;-80
2022/08/31 10:04:15;;;;;;;69.62;8.77;;;;;;;31.41;31.32;98100.53;4425057;32;20169;-81
2022/08/31 10:07:17;;;;;;;6.00;2.87;;;;;;;33.04;28.57;98103.03;4425245;32;20160;-80
2022/08/31 10:09:47;;;;;;;8.10;3.55;;;;;;;33.29;28.38;98095.19;4420586;32;20077;-81
2022/08/31 10:12:45;;;;;;;11.48;2.97;;;;;;;31.30;32.24;98088.59;4424255;32;20369;-81
2022/08/31 10:15:27;;;;;;;7.32;2.95;;;;;;;31.72;31.51;98089.41;4425282;32;20169;-81
2022/08/31 10:18:10;;;;;;;6.07;2.83;;;;;;;31.06;32.26;98082.66;4423815;32;20164;-79
2022/08/31 10:20:44;;;;;;;8.65;3.05;;;;;;;32.34;29.82;98083.91;4424277;32;20082;-79
2022/08/31 10:23:13;;;;;;;9.23;3.60;;;;;;;31.28;31.68;98078.13;4424973;32;20116;-79
2022/08/31 10:25:45;;;;;;;7.53;3.22;;;;;;;31.99;30.47;98075.16;4424971;32;20102;-80
2022/08/31 10:28:35;;;;;;;9.00;3.22;;;;;;;31.54;30.77;98081.94;4425207;32;20598;-80
2022/08/31 10:31:08;;;;;;;11.50;3.17;;;;;;;33.14;28.66;98083.91;4424007;32;20153;-79
2022/08/31 10:36:32;;;;;;;7.35;3.37;;;;;;;32.85;27.84;98075.28;4425071;32;20338;-80
2022/08/31 10:38:59;;;;;;;8.52;3.37;;;;;;;32.17;29.28;98066.59;4424082;32;20428;-79
2022/08/31 10:41:31;;;;;;;5.18;2.70;;;;;;;29.85;32.59;98064.91;4425132;32;20142;-79
2022/08/31 10:44:16;;;;;;;6.60;2.90;;;;;;;31.19;30.86;98065.94;4425153;32;20115;-79
2022/08/31 10:46:44;;;;;;;11.85;3.10;;;;;;;29.95;31.73;98059.28;4424826;32;20098;-78
2022/08/31 10:49:11;;;;;;;11.57;5.43;;;;;;;31.06;30.78;98064.03;4424398;32;20101;-79
2022/08/31 10:52:15;;;;;;;7.80;2.97;;;;;;;32.31;27.81;98054.91;4423021;32;20379;-79
2022/08/31 10:54:49;;;;;;;7.07;3.15;;;;;;;34.20;24.78;98057.59;4424758;32;20494;-79
2022/08/31 10:57:46;;;;;;;8.32;3.65;;;;;;;34.83;24.66;98060.22;4424919;32;20155;-79
2022/08/31 11:03:44;;;;;;;7.18;2.60;;;;;;;32.83;28.40;98057.84;4424110;32;20147;-80
2022/08/31 11:06:37;;;;;;;8.25;3.10;;;;;;;29.96;31.63;98048.47;4424656;32;20105;-79
2022/08/31 11:09:18;;;;;;;9.05;3.50;;;;;;;30.61;31.97;98046.62;4423497;32;20783;-80
2022/08/31 11:12:03;;;;;;;6.60;2.70;;;;;;;31.24;29.96;98031.53;4423858;32;20090;-79
2022/08/31 11:14:57;;;;;;;8.15;3.42;;;;;;;31.59;29.50;98037.66;4424979;32;20115;-79
2022/08/31 11:17:31;;;;;;;8.30;3.03;;;;;;;31.13;29.85;98034.72;4423754;32;20094;-80
2022/08/31 11:20:16;;;;;;;7.25;2.90;;;;;;;31.03;29.97;98035.06;4424626;32;20094;-79
2022/08/31 11:23:09;;;;;;;6.10;2.40;;;;;;;32.17;28.20;98032.69;4423654;32;20107;-80
2022/08/31 11:26:11;;;;;;;5.12;2.58;;;;;;;32.06;26.08;98038.62;4416323;32;20141;-80
2022/08/31 11:28:40;;;;;;;5.93;2.65;;;;;;;32.81;24.51;98031.28;4424288;32;20110;-79
2022/08/31 11:31:18;;;;;;;7.43;3.12;;;;;;;30.63;28.94;98020.66;4424680;32;20173;-80
2022/08/31 11:33:49;;;;;;;9.32;3.17;;;;;;;32.01;28.47;98026.91;4423333;32;20105;-79
2022/08/31 11:36:48;;;;;;;11.55;3.33;;;;;;;34.11;25.65;98032.09;4424337;32;20078;-81
2022/08/31 11:39:25;;;;;;;7.95;3.08;;;;;;;34.98;23.92;98033.91;4424665;32;20159;-82
2022/08/31 11:41:53;;;;;;;9.15;2.83;;;;;;;32.88;25.78;98029.47;4424284;32;20145;-83
2022/08/31 11:44:30;;;;;;;6.45;2.62;;;;;;;33.17;25.48;98028.16;4423176;32;20164;-83
2022/08/31 11:47:34;;;;;;;6.00;2.78;;;;;;;32.97;26.92;98022.88;4424292;32;20496;-83
2022/08/31 11:50:08;;;;;;;7.03;3.00;;;;;;;31.65;28.13;98023.50;4423370;32;20101;-84
2022/08/31 11:52:41;;;;;;;9.35;3.20;;;;;;;32.67;26.48;98024.34;4424373;32;20113;-83
2022/08/31 11:55:44;;;;;;;6.43;2.75;;;;;;;35.33;23.26;98027.97;4423927;32;20089;-84
2022/08/31 11:58:27;;;;;;;6.00;2.90;;;;;;;35.88;22.40;98018.03;4419868;32;20141;-83
2022/08/31 12:00:58;;;;;;;5.80;2.37;;;;;;;31.86;25.51;98011.91;4424760;32;20142;-82
2022/08/31 12:03:46;;;;;;;4.65;2.03;;;;;;;31.90;24.16;98018.50;4425915;32;20415;-82
2022/08/31 12:06:24;;;;;;;6.18;2.50;;;;;;;31.86;24.25;98022.56;4425116;32;20107;-80
2022/08/31 12:09:09;;;;;;;6.65;2.60;;;;;;;32.17;23.85;98015.88;4425445;32;20177;-80
2022/08/31 12:11:43;;;;;;;4.40;2.00;;;;;;;33.59;22.64;98013.44;4426214;32;20101;-79